Time;durP1;ratioP1;P1;durP2;ratioP2;P2;SDS_P1;SDS_P2;PMS_P1;PMS_P2;Temp;Humidity;BMP_temperature;BMP_pressure;BME280_temperature;BME280_humidity;BME280_pressure;Samples;Min_cycle;Max_cycle;Signal;HPM_P1;HPM_P2
2022/12/30 00:01:15;;;;;;;9.00;2.40;;;;;;;;;;5076691;28;20456;-70
2022/12/30 00:03:47;;;;;;;7.10;3.50;;;;;;;;;;5077084;28;20464;-71
2022/12/30 00:06:16;;;;;;;6.83;3.50;;;;;;;;;;5076775;28;20458;-70
2022/12/30 00:08:52;;;;;;;4.23;1.77;;;;;;;;;;5074527;28;20479;-71
2022/12/30 00:11:26;;;;;;;5.90;3.30;;;;;;;;;;5065234;28;20594;-71
2022/12/30 00:33:30;;;;;;;4.37;1.93;;;;;;;;;;5064908;28;20597;-71
2022/12/30 00:36:04;;;;;;;5.90;1.47;;;;;;;;;;5062413;28;20551;-71
2022/12/30 00:38:34;;;;;;;3.63;1.80;;;;;;;;;;5069852;28;20961;-70
2022/12/30 00:43:46;;;;;;;2.70;1.67;;;;;;;;;;5055574;28;20455;-70
2022/12/30 00:46:14;;;;;;;3.70;1.27;;;;;;;;;;5058573;28;20453;-70
2022/12/30 00:57:01;;;;;;;6.90;3.13;;;;;;;;;;5066022;28;20449;-71
2022/12/30 00:59:29;;;;;;;5.50;2.00;;;;;;;;;;5074426;28;20856;-71
2022/12/30 01:01:56;;;;;;;3.80;1.60;;;;;;;;;;5074807;28;20473;-71
2022/12/30 01:04:24;;;;;;;4.13;1.27;;;;;;;;;;5063403;28;20477;-72
2022/12/30 01:06:53;;;;;;;3.00;1.33;;;;;;;;;;5060222;28;20526;-71
2022/12/30 01:09:21;;;;;;;9.20;2.70;;;;;;;;;;5059792;28;20441;-71
2022/12/30 01:12:07;;;;;;;6.23;1.50;;;;;;;;;;5060255;28;20457;-71
2022/12/30 01:14:35;;;;;;;3.00;2.00;;;;;;;;;;5059560;28;20488;-71
2022/12/30 01:17:03;;;;;;;8.93;1.90;;;;;;;;;;5059676;28;20464;-71
2022/12/30 01:19:30;;;;;;;5.17;1.13;;;;;;;;;;5070871;28;20464;-71
2022/12/30 01:21:59;;;;;;;10.53;2.50;;;;;;;;;;5069494;28;20480;-71
2022/12/30 01:24:27;;;;;;;6.10;2.03;;;;;;;;;;5059802;28;20457;-71
2022/12/30 01:26:54;;;;;;;2.60;2.03;;;;;;;;;;5058944;28;20761;-71
2022/12/30 01:29:23;;;;;;;4.40;1.33;;;;;;;;;;5059698;28;20749;-71
2022/12/30 01:31:51;;;;;;;9.30;2.23;;;;;;;;;;5060227;28;20907;-71
2022/12/30 01:34:18;;;;;;;2.33;1.13;;;;;;;;;;5059606;28;20485;-71
2022/12/30 01:36:49;;;;;;;9.10;2.00;;;;;;;;;;5058913;28;20468;-71
2022/12/30 01:39:18;;;;;;;5.67;1.30;;;;;;;;;;5059473;28;20472;-71
2022/12/30 01:41:46;;;;;;;6.40;2.93;;;;;;;;;;5059780;28;20465;-71
2022/12/30 01:44:33;;;;;;;2.20;1.40;;;;;;;;;;5059748;28;20457;-71
2022/12/30 01:47:02;;;;;;;4.50;1.23;;;;;;;;;;5059758;28;20506;-71
2022/12/30 01:49:36;;;;;;;3.50;1.90;;;;;;;;;;5059416;28;20454;-71
2022/12/30 01:52:04;;;;;;;5.37;2.00;;;;;;;;;;5058896;28;20461;-71
2022/12/30 01:54:33;;;;;;;6.90;1.80;;;;;;;;;;5060434;28;20485;-71
2022/12/30 01:57:01;;;;;;;5.53;2.03;;;;;;;;;;5059913;28;20468;-71
2022/12/30 01:59:28;;;;;;;11.17;2.00;;;;;;;;;;5061449;28;20473;-71
2022/12/30 02:01:57;;;;;;;4.53;1.70;;;;;;;;;;5057611;28;20468;-72
2022/12/30 02:04:26;;;;;;;3.27;1.10;;;;;;;;;;5060756;28;20465;-71
2022/12/30 02:07:00;;;;;;;6.90;2.03;;;;;;;;;;5067170;28;20729;-71
2022/12/30 02:09:31;;;;;;;6.17;3.47;;;;;;;;;;5068607;28;20489;-71
2022/12/30 02:12:01;;;;;;;6.80;4.20;;;;;;;;;;5058748;28;20461;-71
2022/12/30 02:14:31;;;;;;;8.80;1.30;;;;;;;;;;5059081;28;20489;-71
2022/12/30 02:17:02;;;;;;;14.50;2.43;;;;;;;;;;5059138;28;20473;-71
2022/12/30 02:19:42;;;;;;;8.67;3.20;;;;;;;;;;5058601;28;20552;-71
2022/12/30 02:22:12;;;;;;;6.37;2.30;;;;;;;;;;5058999;28;20461;-71
2022/12/30 02:24:52;;;;;;;5.00;2.00;;;;;;;;;;5059331;28;20465;-71
2022/12/30 02:27:38;;;;;;;13.33;3.27;;;;;;;;;;5072400;28;20464;-71
2022/12/30 02:30:12;;;;;;;7.83;2.87;;;;;;;;;;5078569;28;20475;-71
2022/12/30 02:32:51;;;;;;;7.27;3.53;;;;;;;;;;5078859;28;20456;-71
2022/12/30 02:35:24;;;;;;;5.43;1.80;;;;;;;;;;5065517;28;20740;-71
2022/12/30 02:37:56;;;;;;;8.13;3.50;;;;;;;;;;5067356;28;20468;-72
2022/12/30 02:40:26;;;;;;;5.77;2.57;;;;;;;;;;5069492;28;20810;-71
2022/12/30 02:45:45;;;;;;;7.20;2.00;;;;;;;;;;5062376;28;20457;-71
2022/12/30 02:48:16;;;;;;;2.13;1.17;;;;;;;;;;5072644;28;20825;-72
2022/12/30 02:53:32;;;;;;;8.53;3.00;;;;;;;;;;5063268;28;21131;-71
2022/12/30 02:56:00;;;;;;;14.73;3.43;;;;;;;;;;5064693;28;20774;-71
2022/12/30 02:58:29;;;;;;;11.87;2.73;;;;;;;;;;5068550;28;20571;-71
2022/12/30 03:04:01;;;;;;;3.53;2.00;;;;;;;;;;5072568;28;20883;-71
2022/12/30 03:06:36;;;;;;;15.10;3.20;;;;;;;;;;5077708;28;20453;-71
2022/12/30 03:09:07;;;;;;;4.63;2.00;;;;;;;;;;5076099;28;20496;-71
2022/12/30 03:11:38;;;;;;;6.87;1.63;;;;;;;;;;5077393;28;20812;-71
2022/12/30 03:14:09;;;;;;;7.83;2.30;;;;;;;;;;5067513;28;20837;-71
2022/12/30 03:16:38;;;;;;;12.87;2.87;;;;;;;;;;5058419;28;20469;-71
2022/12/30 03:19:10;;;;;;;11.03;1.80;;;;;;;;;;5057536;28;20452;-71
2022/12/30 03:21:41;;;;;;;6.80;2.40;;;;;;;;;;5075903;28;20873;-71
2022/12/30 03:27:05;;;;;;;18.73;3.37;;;;;;;;;;5077680;28;20462;-71
2022/12/30 03:29:34;;;;;;;5.30;2.10;;;;;;;;;;5077637;28;20453;-71
2022/12/30 03:32:02;;;;;;;4.97;2.20;;;;;;;;;;5071659;28;20472;-71
2022/12/30 03:34:32;;;;;;;5.37;1.90;;;;;;;;;;5057814;28;20927;-72
2022/12/30 03:37:02;;;;;;;7.57;1.97;;;;;;;;;;5057447;28;20519;-72
2022/12/30 03:39:32;;;;;;;8.03;1.60;;;;;;;;;;5057805;28;20501;-72
2022/12/30 03:42:07;;;;;;;11.50;2.97;;;;;;;;;;5056971;28;20507;-72
2022/12/30 03:44:35;;;;;;;13.03;2.60;;;;;;;;;;5065320;28;20483;-72
2022/12/30 03:47:03;;;;;;;7.17;2.03;;;;;;;;;;5077394;28;20473;-71
2022/12/30 03:49:41;;;;;;;15.27;3.20;;;;;;;;;;5061829;28;20465;-72
2022/12/30 03:52:08;;;;;;;3.60;1.40;;;;;;;;;;5060793;28;20534;-71
2022/12/30 03:54:39;;;;;;;9.93;1.87;;;;;;;;;;5068849;28;20575;-71
2022/12/30 03:57:07;;;;;;;5.83;1.47;;;;;;;;;;5061094;28;20462;-72
2022/12/30 03:59:35;;;;;;;5.10;2.07;;;;;;;;;;5065967;28;20502;-72
2022/12/30 04:02:02;;;;;;;6.20;2.13;;;;;;;;;;5056610;28;20453;-72
2022/12/30 04:04:32;;;;;;;6.13;2.27;;;;;;;;;;5056348;28;20560;-71
2022/12/30 04:06:59;;;;;;;18.87;2.80;;;;;;;;;;5076208;28;20836;-71
2022/12/30 04:09:27;;;;;;;7.80;2.53;;;;;;;;;;5076098;28;20475;-71
2022/12/30 04:11:55;;;;;;;14.10;2.80;;;;;;;;;;5077004;28;20456;-71
2022/12/30 04:14:23;;;;;;;7.30;2.10;;;;;;;;;;5071986;28;20480;-71
2022/12/30 04:16:50;;;;;;;8.23;2.40;;;;;;;;;;5060990;28;20788;-72
2022/12/30 04:19:20;;;;;;;6.23;1.90;;;;;;;;;;5073297;28;20476;-71
2022/12/30 04:21:49;;;;;;;9.30;2.30;;;;;;;;;;5077033;28;20461;-71
2022/12/30 04:24:17;;;;;;;5.03;1.83;;;;;;;;;;5076699;28;20496;-72
2022/12/30 04:26:44;;;;;;;9.17;1.60;;;;;;;;;;5076556;28;20452;-71
2022/12/30 04:29:12;;;;;;;7.17;2.20;;;;;;;;;;5073286;28;20468;-71
2022/12/30 04:31:40;;;;;;;6.53;1.53;;;;;;;;;;5071028;28;20457;-71
2022/12/30 04:34:08;;;;;;;9.67;3.30;;;;;;;;;;5055910;28;20485;-71
2022/12/30 04:36:39;;;;;;;9.87;1.77;;;;;;;;;;5056764;28;20465;-71
2022/12/30 04:39:08;;;;;;;4.33;1.33;;;;;;;;;;5055971;28;20458;-71
2022/12/30 04:41:36;;;;;;;6.00;2.03;;;;;;;;;;5057008;28;20457;-71
2022/12/30 04:44:04;;;;;;;3.07;1.73;;;;;;;;;;5056623;28;20472;-71
2022/12/30 04:46:31;;;;;;;9.47;1.73;;;;;;;;;;5056948;28;20453;-71
2022/12/30 04:48:59;;;;;;;6.00;2.10;;;;;;;;;;5062076;28;20457;-71
2022/12/30 04:51:27;;;;;;;4.43;1.77;;;;;;;;;;5076133;28;20521;-71
2022/12/30 04:53:55;;;;;;;8.43;2.50;;;;;;;;;;5074867;28;20883;-71
2022/12/30 04:56:24;;;;;;;5.37;2.13;;;;;;;;;;5055847;28;20460;-72
2022/12/30 04:58:51;;;;;;;7.90;2.50;;;;;;;;;;5055933;28;20457;-71
2022/12/30 05:01:19;;;;;;;6.43;2.73;;;;;;;;;;5056694;28;20468;-71
2022/12/30 05:03:47;;;;;;;6.60;2.00;;;;;;;;;;5055444;28;20476;-71
2022/12/30 05:06:14;;;;;;;11.83;2.97;;;;;;;;;;5055456;28;20461;-71
2022/12/30 05:08:42;;;;;;;5.00;1.27;;;;;;;;;;5076087;28;20465;-72
2022/12/30 05:11:09;;;;;;;11.90;2.93;;;;;;;;;;5075143;28;20460;-71
2022/12/30 05:13:38;;;;;;;7.93;2.47;;;;;;;;;;5075768;28;20465;-71
2022/12/30 05:16:06;;;;;;;5.40;2.00;;;;;;;;;;5076109;28;20546;-71
2022/12/30 05:18:34;;;;;;;8.93;1.90;;;;;;;;;;5076097;28;20482;-71
2022/12/30 05:21:01;;;;;;;5.60;2.00;;;;;;;;;;5075872;28;20452;-71
2022/12/30 05:26:16;;;;;;;13.53;2.47;;;;;;;;;;5075416;28;20431;-72
2022/12/30 05:28:47;;;;;;;6.80;2.80;;;;;;;;;;5075416;28;20725;-71
2022/12/30 05:31:15;;;;;;;9.23;3.07;;;;;;;;;;5075630;28;20880;-71
2022/12/30 05:33:42;;;;;;;6.90;2.00;;;;;;;;;;5079033;28;20456;-71
2022/12/30 05:36:11;;;;;;;4.60;1.33;;;;;;;;;;5077569;28;20852;-71
2022/12/30 05:38:39;;;;;;;4.60;1.47;;;;;;;;;;5078349;28;20463;-71
2022/12/30 05:41:07;;;;;;;6.57;1.93;;;;;;;;;;5078574;28;20451;-72
2022/12/30 05:43:35;;;;;;;6.83;1.80;;;;;;;;;;5079707;28;20456;-72
2022/12/30 05:46:04;;;;;;;3.83;2.03;;;;;;;;;;5077739;28;20457;-71
2022/12/30 05:48:31;;;;;;;8.87;3.07;;;;;;;;;;5077853;28;20547;-72
2022/12/30 05:50:59;;;;;;;9.60;1.83;;;;;;;;;;5069297;28;20449;-72
2022/12/30 05:53:27;;;;;;;3.43;1.47;;;;;;;;;;5059439;28;20453;-72
2022/12/30 05:55:54;;;;;;;13.67;2.50;;;;;;;;;;5059377;28;20496;-72
2022/12/30 05:58:22;;;;;;;6.40;2.40;;;;;;;;;;5058830;28;21029;-72
2022/12/30 06:00:49;;;;;;;5.00;2.03;;;;;;;;;;5059531;28;20446;-71
2022/12/30 06:03:19;;;;;;;10.47;2.37;;;;;;;;;;5058493;28;20461;-72
2022/12/30 06:05:47;;;;;;;12.07;2.70;;;;;;;;;;5058558;28;20457;-72
2022/12/30 06:08:15;;;;;;;14.73;4.00;;;;;;;;;;5058981;28;20484;-72
2022/12/30 06:10:43;;;;;;;11.60;2.13;;;;;;;;;;5058501;28;20465;-72
2022/12/30 06:13:11;;;;;;;11.70;2.60;;;;;;;;;;5058469;28;20468;-71
2022/12/30 06:15:39;;;;;;;11.03;2.70;;;;;;;;;;5058504;28;20505;-71
2022/12/30 06:18:07;;;;;;;6.07;1.80;;;;;;;;;;5058528;28;20468;-72
2022/12/30 06:20:36;;;;;;;10.27;2.73;;;;;;;;;;5058776;28;20461;-72
2022/12/30 06:23:05;;;;;;;7.00;2.60;;;;;;;;;;5058711;28;20457;-72
2022/12/30 06:25:34;;;;;;;5.60;2.00;;;;;;;;;;5059144;28;20540;-72
2022/12/30 06:28:01;;;;;;;7.00;2.23;;;;;;;;;;5058777;28;20738;-72
2022/12/30 06:30:30;;;;;;;5.57;2.07;;;;;;;;;;5058768;28;20463;-72
2022/12/30 06:32:58;;;;;;;12.33;2.97;;;;;;;;;;5058525;28;20445;-72
2022/12/30 06:35:26;;;;;;;8.87;3.23;;;;;;;;;;5057777;28;20489;-71
2022/12/30 06:37:53;;;;;;;3.83;2.50;;;;;;;;;;5058563;28;20468;-71
2022/12/30 06:40:22;;;;;;;5.13;2.50;;;;;;;;;;5057588;28;20553;-71
2022/12/30 06:42:50;;;;;;;8.57;2.63;;;;;;;;;;5068469;28;20473;-71
2022/12/30 06:45:18;;;;;;;8.77;1.77;;;;;;;;;;5077181;28;20460;-71
2022/12/30 06:47:45;;;;;;;5.30;2.40;;;;;;;;;;5077377;28;20535;-71
2022/12/30 06:50:13;;;;;;;5.90;1.90;;;;;;;;;;5076532;28;20463;-71
2022/12/30 06:52:40;;;;;;;7.30;2.50;;;;;;;;;;5077568;28;20775;-70
2022/12/30 06:55:08;;;;;;;6.43;2.00;;;;;;;;;;5076851;28;20487;-71
2022/12/30 06:57:38;;;;;;;13.73;3.00;;;;;;;;;;5078106;28;20539;-71
2022/12/30 07:00:13;;;;;;;7.37;2.80;;;;;;;;;;5077836;28;20457;-73
2022/12/30 07:02:40;;;;;;;10.70;2.67;;;;;;;;;;5077842;28;20451;-71
2022/12/30 07:05:08;;;;;;;5.10;2.30;;;;;;;;;;5077830;28;20756;-72
2022/12/30 07:07:36;;;;;;;4.93;2.00;;;;;;;;;;5077849;28;20736;-71
2022/12/30 07:10:05;;;;;;;8.97;2.50;;;;;;;;;;5076903;28;20483;-71
2022/12/30 07:12:32;;;;;;;5.40;1.97;;;;;;;;;;5076378;28;20748;-71
2022/12/30 07:15:03;;;;;;;6.37;2.40;;;;;;;;;;5076677;28;20499;-72
2022/12/30 07:17:30;;;;;;;7.13;2.23;;;;;;;;;;5076952;28;20866;-71
2022/12/30 07:20:00;;;;;;;8.10;3.00;;;;;;;;;;5077431;28;20966;-72
2022/12/30 07:22:28;;;;;;;5.40;2.00;;;;;;;;;;5077675;28;20526;-71
2022/12/30 07:24:58;;;;;;;7.00;2.80;;;;;;;;;;5059645;28;20466;-70
2022/12/30 07:27:26;;;;;;;5.93;2.03;;;;;;;;;;5057721;28;20461;-71
2022/12/30 07:29:54;;;;;;;5.47;2.70;;;;;;;;;;5064271;28;20472;-72
2022/12/30 07:32:23;;;;;;;8.83;2.30;;;;;;;;;;5070880;28;20456;-71
2022/12/30 07:34:54;;;;;;;5.20;2.27;;;;;;;;;;5077646;28;20924;-72
2022/12/30 07:37:22;;;;;;;12.47;3.13;;;;;;;;;;5066764;28;20445;-72
2022/12/30 07:39:49;;;;;;;11.10;3.30;;;;;;;;;;5072256;28;20456;-71
2022/12/30 07:42:27;;;;;;;13.37;4.43;;;;;;;;;;5060792;28;20438;-72
2022/12/30 07:44:57;;;;;;;4.00;2.00;;;;;;;;;;5057179;28;20483;-72
2022/12/30 07:47:26;;;;;;;11.20;2.90;;;;;;;;;;5057273;28;20457;-72
2022/12/30 07:49:58;;;;;;;17.93;3.87;;;;;;;;;;5056620;28;20466;-72
2022/12/30 07:52:29;;;;;;;14.00;2.83;;;;;;;;;;5073645;28;20444;-72
2022/12/30 07:54:57;;;;;;;9.73;3.50;;;;;;;;;;5075717;28;20553;-71
2022/12/30 07:57:25;;;;;;;9.43;3.33;;;;;;;;;;5086203;28;20448;-72
2022/12/30 07:59:53;;;;;;;5.77;2.13;;;;;;;;;;5077571;28;20463;-71
2022/12/30 08:02:20;;;;;;;12.50;3.53;;;;;;;;;;5076833;28;20492;-70
2022/12/30 08:04:50;;;;;;;7.53;3.13;;;;;;;;;;5076728;28;20860;-72
2022/12/30 08:07:17;;;;;;;6.67;3.07;;;;;;;;;;5076876;28;20494;-71
2022/12/30 08:09:45;;;;;;;7.77;2.83;;;;;;;;;;5062920;28;20900;-72
2022/12/30 08:12:16;;;;;;;8.23;3.13;;;;;;;;;;5075841;28;20456;-71
2022/12/30 08:14:44;;;;;;;8.93;2.83;;;;;;;;;;5076687;28;20464;-72
2022/12/30 08:17:14;;;;;;;5.03;2.50;;;;;;;;;;5056919;28;20461;-70
2022/12/30 08:19:42;;;;;;;4.27;2.10;;;;;;;;;;5056366;28;20454;-72
2022/12/30 08:22:11;;;;;;;9.30;2.93;;;;;;;;;;5063964;28;20461;-72
2022/12/30 08:24:42;;;;;;;11.23;2.60;;;;;;;;;;5075756;28;21090;-72
2022/12/30 08:27:09;;;;;;;8.00;2.80;;;;;;;;;;5076931;28;20449;-71
2022/12/30 08:29:37;;;;;;;5.43;2.87;;;;;;;;;;5076332;28;20521;-71
2022/12/30 08:32:05;;;;;;;9.50;3.30;;;;;;;;;;5065394;28;20523;-71
2022/12/30 08:34:33;;;;;;;7.07;3.40;;;;;;;;;;5075637;28;20453;-73
2022/12/30 08:37:01;;;;;;;3.93;3.50;;;;;;;;;;5061763;28;20489;-71
2022/12/30 08:39:31;;;;;;;5.10;3.20;;;;;;;;;;5056624;28;20471;-71
2022/12/30 08:41:59;;;;;;;6.27;3.53;;;;;;;;;;5056848;28;20468;-71
2022/12/30 08:44:27;;;;;;;11.30;3.17;;;;;;;;;;5056341;28;20480;-71
2022/12/30 08:46:55;;;;;;;13.47;6.23;;;;;;;;;;5069476;28;20464;-71
2022/12/30 08:49:25;;;;;;;7.43;3.00;;;;;;;;;;5063650;28;20462;-71
2022/12/30 08:51:53;;;;;;;9.40;5.40;;;;;;;;;;5058424;28;20464;-72
2022/12/30 08:54:23;;;;;;;12.17;5.00;;;;;;;;;;5056341;28;20461;-72
2022/12/30 08:56:52;;;;;;;8.47;3.50;;;;;;;;;;5075348;28;20483;-70
2022/12/30 08:59:20;;;;;;;7.93;4.07;;;;;;;;;;5074572;28;20520;-72
2022/12/30 09:02:02;;;;;;;7.63;4.40;;;;;;;;;;5072986;28;20456;-71
2022/12/30 09:04:53;;;;;;;11.23;3.73;;;;;;;;;;5055610;28;20461;-72
2022/12/30 09:07:21;;;;;;;9.90;4.00;;;;;;;;;;5056423;28;20540;-72
2022/12/30 09:09:49;;;;;;;5.90;3.17;;;;;;;;;;5057759;28;20919;-71
2022/12/30 09:12:21;;;;;;;14.33;4.90;;;;;;;;;;5059547;28;20445;-72
2022/12/30 09:14:49;;;;;;;8.40;4.03;;;;;;;;;;5077607;28;20549;-71
2022/12/30 09:17:16;;;;;;;8.67;3.70;;;;;;;;;;5078559;28;20484;-71
2022/12/30 09:19:47;;;;;;;7.60;3.53;;;;;;;;;;5073367;28;20517;-71
2022/12/30 09:22:15;;;;;;;5.80;3.23;;;;;;;;;;5062158;28;20532;-72
2022/12/30 09:24:42;;;;;;;4.60;2.70;;;;;;;;;;5065498;28;20875;-72
2022/12/30 09:27:12;;;;;;;3.87;1.67;;;;;;;;;;5069940;28;20473;-72
2022/12/30 09:29:44;;;;;;;14.13;4.10;;;;;;;;;;5058236;28;20915;-72
2022/12/30 09:32:11;;;;;;;3.87;2.43;;;;;;;;;;5071069;28;20464;-71
2022/12/30 09:34:41;;;;;;;4.93;2.87;;;;;;;;;;5093175;28;20545;-72
2022/12/30 09:37:11;;;;;;;5.30;2.40;;;;;;;;;;5079222;28;20479;-72
2022/12/30 09:39:43;;;;;;;3.60;1.73;;;;;;;;;;5077879;28;20567;-72
2022/12/30 09:45:18;;;;;;;11.10;3.13;;;;;;;;;;5076536;28;20447;-72
2022/12/30 09:47:47;;;;;;;4.83;2.17;;;;;;;;;;5077360;28;20448;-72
2022/12/30 09:50:22;;;;;;;7.33;4.00;;;;;;;;;;5074359;28;20885;-73
2022/12/30 09:52:56;;;;;;;12.03;5.10;;;;;;;;;;5077085;28;20440;-73
2022/12/30 09:55:30;;;;;;;4.73;1.17;;;;;;;;;;5077096;28;20460;-73
2022/12/30 09:58:02;;;;;;;6.80;2.90;;;;;;;;;;5077838;28;20538;-72
2022/12/30 10:00:37;;;;;;;8.40;3.00;;;;;;;;;;5075081;28;20514;-73
2022/12/30 10:03:07;;;;;;;8.67;2.67;;;;;;;;;;5075172;28;20970;-73
2022/12/30 10:05:49;;;;;;;4.30;2.50;;;;;;;;;;5057753;28;20461;-72
2022/12/30 10:08:24;;;;;;;10.30;2.93;;;;;;;;;;5057789;28;20466;-72
2022/12/30 10:10:54;;;;;;;5.90;2.10;;;;;;;;;;5057800;28;20480;-71
2022/12/30 10:13:25;;;;;;;4.73;2.30;;;;;;;;;;5055996;28;20446;-72
2022/12/30 10:15:58;;;;;;;6.67;4.00;;;;;;;;;;5056082;28;20485;-72
2022/12/30 10:18:38;;;;;;;7.63;3.27;;;;;;;;;;5056437;28;21067;-72
2022/12/30 10:21:15;;;;;;;9.63;2.63;;;;;;;;;;5056905;28;20476;-72
2022/12/30 10:23:48;;;;;;;6.20;2.33;;;;;;;;;;5060963;28;20464;-72
2022/12/30 10:26:16;;;;;;;16.17;3.47;;;;;;;;;;5076806;28;20456;-72
2022/12/30 10:28:47;;;;;;;5.80;2.20;;;;;;;;;;5066689;28;20670;-72
2022/12/30 10:31:19;;;;;;;6.13;2.37;;;;;;;;;;5058009;28;20480;-72
2022/12/30 10:33:49;;;;;;;6.17;1.90;;;;;;;;;;5076171;28;20469;-72
2022/12/30 10:36:19;;;;;;;17.50;2.80;;;;;;;;;;5076182;28;20519;-72
2022/12/30 10:38:47;;;;;;;4.97;2.63;;;;;;;;;;5075614;28;20551;-72
2022/12/30 10:41:24;;;;;;;5.73;3.70;;;;;;;;;;5074454;28;20452;-72
2022/12/30 10:43:56;;;;;;;15.03;3.33;;;;;;;;;;5055733;28;20889;-72
2022/12/30 10:46:35;;;;;;;6.73;2.80;;;;;;;;;;5055433;28;20461;-73
2022/12/30 10:49:16;;;;;;;7.07;2.13;;;;;;;;;;5056031;28;20461;-71
2022/12/30 10:51:49;;;;;;;5.80;2.83;;;;;;;;;;5055907;28;20484;-72
2022/12/30 10:54:23;;;;;;;4.77;2.23;;;;;;;;;;5058753;28;20471;-72
2022/12/30 10:56:57;;;;;;;8.77;2.07;;;;;;;;;;5064240;28;20492;-72
2022/12/30 10:59:30;;;;;;;3.00;1.57;;;;;;;;;;5056055;28;20461;-72
2022/12/30 11:02:03;;;;;;;7.67;2.10;;;;;;;;;;5055392;28;20479;-73
2022/12/30 11:04:35;;;;;;;9.43;3.67;;;;;;;;;;5056725;28;20465;-72
2022/12/30 11:07:07;;;;;;;6.43;2.70;;;;;;;;;;5054773;28;20464;-73
2022/12/30 11:09:35;;;;;;;14.47;2.70;;;;;;;;;;5064140;28;20496;-70
2022/12/30 11:14:57;;;;;;;20.77;3.10;;;;;;;;;;5075368;28;20513;-73
2022/12/30 11:17:32;;;;;;;19.40;6.60;;;;;;;;;;5056013;28;20496;-71
2022/12/30 11:20:07;;;;;;;4.00;2.30;;;;;;;;;;5056949;28;20449;-72
2022/12/30 11:22:39;;;;;;;6.30;1.70;;;;;;;;;;5057270;28;20467;-71
2022/12/30 11:25:27;;;;;;;8.73;4.10;;;;;;;;;;5069672;28;20475;-70
2022/12/30 11:33:54;;;;;;;8.00;2.60;;;;;;;;;;5053027;28;20493;-70
2022/12/30 11:36:25;;;;;;;7.73;3.60;;;;;;;;;;5056799;28;20481;-72
2022/12/30 11:38:59;;;;;;;8.88;3.88;;;;;;;;;;5055445;28;20450;-71
2022/12/30 11:41:38;;;;;;;7.57;2.47;;;;;;;;;;5056462;28;20321;-71
2022/12/30 11:44:18;;;;;;;5.50;1.83;;;;;;;;;;5056368;28;20459;-72
2022/12/30 11:47:01;;;;;;;7.17;2.73;;;;;;;;;;5059911;28;20485;-72
2022/12/30 11:49:46;;;;;;;9.53;2.33;;;;;;;;;;5074028;28;20486;-71
2022/12/30 11:52:19;;;;;;;9.47;2.77;;;;;;;;;;5074462;28;20483;-71
2022/12/30 11:54:50;;;;;;;8.13;7.30;;;;;;;;;;5073260;28;20460;-72
2022/12/30 11:57:22;;;;;;;13.17;8.20;;;;;;;;;;5074796;28;20488;-71
2022/12/30 11:59:57;;;;;;;11.87;10.13;;;;;;;;;;5074269;28;20457;-72
2022/12/30 12:02:40;;;;;;;18.03;8.20;;;;;;;;;;5075326;28;20466;-69
2022/12/30 12:05:30;;;;;;;16.10;12.73;;;;;;;;;;5055693;28;20496;-72
2022/12/30 12:11:09;;;;;;;16.07;12.60;;;;;;;;;;5058839;28;20449;-72
2022/12/30 12:13:46;;;;;;;28.90;26.50;;;;;;;;;;5071444;28;20511;-71
2022/12/30 12:16:21;;;;;;;26.90;24.70;;;;;;;;;;5072778;28;20747;-72
2022/12/30 12:18:51;;;;;;;32.57;29.33;;;;;;;;;;5072535;28;20455;-71
2022/12/30 12:21:24;;;;;;;35.17;32.57;;;;;;;;;;5060231;28;20457;-71
2022/12/30 12:24:05;;;;;;;58.23;53.47;;;;;;;;;;5055607;28;20537;-71
2022/12/30 12:26:34;;;;;;;54.27;49.87;;;;;;;;;;5054717;28;20469;-70
2022/12/30 12:29:07;;;;;;;46.33;42.67;;;;;;;;;;5070628;28;20543;-71
2022/12/30 12:31:49;;;;;;;72.33;65.70;;;;;;;;;;5073487;28;20487;-71
2022/12/30 12:34:42;;;;;;;155.63;94.93;;;;;;;;;;5052952;28;20469;-70
2022/12/30 12:37:16;;;;;;;141.50;91.93;;;;;;;;;;5053369;28;20550;-70
2022/12/30 12:40:00;;;;;;;187.37;102.27;;;;;;;;;;5056713;28;20479;-72
2022/12/30 12:42:32;;;;;;;192.37;105.60;;;;;;;;;;5057817;28;20477;-72
2022/12/30 12:45:15;;;;;;;199.73;105.50;;;;;;;;;;5065446;28;20473;-72
2022/12/30 12:47:52;;;;;;;184.97;99.37;;;;;;;;;;5058368;28;20473;-73
2022/12/30 12:50:36;;;;;;;163.77;91.37;;;;;;;;;;5060252;28;20457;-72
2022/12/30 12:53:19;;;;;;;159.93;99.40;;;;;;;;;;5062340;28;20787;-72
2022/12/30 12:56:02;;;;;;;168.47;100.80;;;;;;;;;;5072882;28;20564;-71
2022/12/30 12:58:34;;;;;;;154.13;93.63;;;;;;;;;;5076689;28;20550;-71
2022/12/30 13:01:11;;;;;;;176.67;97.23;;;;;;;;;;5073567;28;20461;-72
2022/12/30 13:03:48;;;;;;;140.30;86.27;;;;;;;;;;5058228;28;20465;-71
2022/12/30 13:06:19;;;;;;;201.87;96.47;;;;;;;;;;5057894;28;20543;-72
2022/12/30 13:08:54;;;;;;;255.63;106.60;;;;;;;;;;5058883;28;20844;-71
2022/12/30 13:11:28;;;;;;;203.93;100.13;;;;;;;;;;5057921;28;20457;-71
2022/12/30 13:14:05;;;;;;;200.57;99.97;;;;;;;;;;5057951;28;20465;-72
2022/12/30 13:16:36;;;;;;;185.60;95.63;;;;;;;;;;5067486;28;20572;-70
2022/12/30 13:19:08;;;;;;;250.13;230.83;;;;;;;;;;5056856;28;20431;-70
2022/12/30 13:21:36;;;;;;;197.20;129.03;;;;;;;;;;5057593;28;20543;-70
2022/12/30 13:24:09;;;;;;;206.73;116.30;;;;;;;;;;5066103;28;20465;-74
2022/12/30 13:26:37;;;;;;;187.07;98.23;;;;;;;;;;5055981;28;20542;-72
2022/12/30 13:29:20;;;;;;;166.33;111.30;;;;;;;;;;5056121;28;20466;-72
2022/12/30 13:31:59;;;;;;;184.83;103.90;;;;;;;;;;5058031;28;20471;-73
2022/12/30 13:34:31;;;;;;;135.20;93.90;;;;;;;;;;5057279;28;20880;-72
2022/12/30 13:37:01;;;;;;;89.97;80.33;;;;;;;;;;5057607;28;20493;-71
2022/12/30 13:39:36;;;;;;;51.80;47.23;;;;;;;;;;5057943;28;20467;-71
2022/12/30 13:42:26;;;;;;;8.67;2.97;;;;;;;;;;5056783;28;20463;-71
2022/12/30 13:45:08;;;;;;;11.47;5.13;;;;;;;;;;5062152;28;20456;-71
2022/12/30 13:47:40;;;;;;;10.20;3.93;;;;;;;;;;5076580;28;20469;-72
2022/12/30 13:53:26;;;;;;;121.70;92.47;;;;;;;;;;5052320;28;20480;-72
2022/12/30 13:55:59;;;;;;;84.70;75.50;;;;;;;;;;5055251;28;20464;-71
2022/12/30 13:58:36;;;;;;;43.50;39.90;;;;;;;;;;5064983;28;20488;-71
2022/12/30 14:01:26;;;;;;;110.27;85.90;;;;;;;;;;5071153;28;20480;-73
2022/12/30 14:04:09;;;;;;;94.27;83.60;;;;;;;;;;5055254;28;20531;-72
2022/12/30 14:06:45;;;;;;;108.93;83.53;;;;;;;;;;5070742;28;20467;-72
2022/12/30 14:09:35;;;;;;;11.03;10.00;;;;;;;;;;5064000;28;20554;-71
2022/12/30 14:12:22;;;;;;;47.77;44.47;;;;;;;;;;5064838;28;20540;-71
2022/12/30 14:15:32;;;;;;;67.17;61.27;;;;;;;;;;5061242;28;20478;-71
2022/12/30 14:18:02;;;;;;;17.00;9.57;;;;;;;;;;5058373;28;20520;-71
2022/12/30 14:20:38;;;;;;;14.97;13.60;;;;;;;;;;5056479;28;20904;-71
2022/12/30 14:23:08;;;;;;;22.60;20.63;;;;;;;;;;5066820;28;20514;-71
2022/12/30 14:25:42;;;;;;;28.47;26.43;;;;;;;;;;5081953;28;20476;-71
2022/12/30 14:28:30;;;;;;;25.07;21.83;;;;;;;;;;5067640;28;20473;-71
2022/12/30 14:31:05;;;;;;;25.73;23.93;;;;;;;;;;5054956;28;20854;-72
2022/12/30 14:33:59;;;;;;;36.37;33.70;;;;;;;;;;5054188;28;20464;-72
2022/12/30 14:36:29;;;;;;;37.20;34.50;;;;;;;;;;5060814;28;20540;-71
2022/12/30 14:39:08;;;;;;;36.17;33.37;;;;;;;;;;5070469;28;20460;-72
2022/12/30 14:41:48;;;;;;;36.40;33.80;;;;;;;;;;5073506;28;20540;-71
2022/12/30 14:47:09;;;;;;;27.17;25.43;;;;;;;;;;5070024;28;20880;-71
2022/12/30 14:49:41;;;;;;;34.20;31.90;;;;;;;;;;5058919;28;20465;-72
2022/12/30 14:52:27;;;;;;;24.40;22.27;;;;;;;;;;5063392;28;20927;-71
2022/12/30 15:01:02;;;;;;;25.83;24.00;;;;;;;;;;5070676;28;20488;-71
2022/12/30 15:03:34;;;;;;;34.27;31.77;;;;;;;;;;5064599;28;21016;-71
2022/12/30 15:06:03;;;;;;;35.57;32.97;;;;;;;;;;5055394;28;20532;-71
2022/12/30 15:08:41;;;;;;;24.43;22.63;;;;;;;;;;5055270;28;20484;-72
2022/12/30 15:11:21;;;;;;;15.47;14.30;;;;;;;;;;5079170;28;20500;-72
2022/12/30 15:13:55;;;;;;;23.67;21.93;;;;;;;;;;5059423;28;21005;-72
2022/12/30 15:16:31;;;;;;;25.50;23.87;;;;;;;;;;5057019;28;20553;-71
2022/12/30 15:19:04;;;;;;;22.57;20.87;;;;;;;;;;5056641;28;20514;-72
2022/12/30 15:21:33;;;;;;;33.50;30.93;;;;;;;;;;5061544;28;20472;-72
2022/12/30 15:24:16;;;;;;;23.30;21.30;;;;;;;;;;5055046;28;20511;-72
2022/12/30 15:26:59;;;;;;;24.10;22.30;;;;;;;;;;5063403;28;20470;-72
2022/12/30 15:29:31;;;;;;;39.07;36.23;;;;;;;;;;5075248;28;20461;-72
2022/12/30 15:32:18;;;;;;;31.80;29.27;;;;;;;;;;5055537;28;20457;-72
2022/12/30 15:34:46;;;;;;;27.93;25.53;;;;;;;;;;5056996;28;20495;-71
2022/12/30 15:37:18;;;;;;;32.13;29.63;;;;;;;;;;5074789;28;20492;-71
2022/12/30 15:39:51;;;;;;;49.93;45.77;;;;;;;;;;5072723;28;20518;-71
2022/12/30 15:42:23;;;;;;;39.13;36.23;;;;;;;;;;5057591;28;20843;-72
2022/12/30 15:44:52;;;;;;;18.90;17.30;;;;;;;;;;5062240;28;20452;-71
2022/12/30 15:47:21;;;;;;;18.77;13.37;;;;;;;;;;5059726;28;20471;-71
2022/12/30 15:49:50;;;;;;;22.27;20.47;;;;;;;;;;5056282;28;20453;-71
2022/12/30 15:52:18;;;;;;;17.80;16.57;;;;;;;;;;5061543;28;21028;-71
2022/12/30 15:54:49;;;;;;;26.13;24.40;;;;;;;;;;5064850;28;20464;-71
2022/12/30 15:57:22;;;;;;;26.93;25.33;;;;;;;;;;5060274;28;20546;-71
2022/12/30 16:00:03;;;;;;;23.37;21.63;;;;;;;;;;5055942;28;20534;-71
2022/12/30 16:02:58;;;;;;;30.30;27.87;;;;;;;;;;5059358;28;20449;-72
2022/12/30 16:05:31;;;;;;;44.60;40.97;;;;;;;;;;5056867;28;20866;-72
2022/12/30 16:08:26;;;;;;;37.93;35.03;;;;;;;;;;5058780;28;20563;-71
2022/12/30 16:11:04;;;;;;;34.67;32.43;;;;;;;;;;5053847;28;20448;-71
2022/12/30 16:13:34;;;;;;;38.17;35.13;;;;;;;;;;5052096;28;20461;-71